Time;durP1;ratioP1;P1;durP2;ratioP2;P2;SDS_P1;SDS_P2;PMS_P1;PMS_P2;Temp;Humidity;BMP_temperature;BMP_pressure;BME280_temperature;BME280_humidity;BME280_pressure;Samples;Min_cycle;Max_cycle;Signal;HPM_P1;HPM_P2
2023/05/31 00:01:48;;;;;;;16.20;4.78;;;;;;;20.05;51.68;98487.16;5070577;28;20119;-45
2023/05/31 00:04:14;;;;;;;24.52;6.57;;;;;;;20.20;51.68;98478.34;5090942;28;20432;-45
2023/05/31 00:06:39;;;;;;;16.20;5.55;;;;;;;20.29;51.39;98475.94;5087264;28;20068;-45
2023/05/31 00:09:05;;;;;;;13.50;5.40;;;;;;;20.35;51.19;98478.31;5089660;28;20102;-45
2023/05/31 00:11:30;;;;;;;8.85;4.82;;;;;;;20.35;51.02;98478.31;5070592;28;20048;-45
2023/05/31 00:13:56;;;;;;;10.70;4.20;;;;;;;20.37;51.10;98479.94;5088325;28;20437;-45
2023/05/31 00:16:22;;;;;;;16.13;5.53;;;;;;;20.34;51.07;98482.06;5070529;28;20474;-46
2023/05/31 00:18:47;;;;;;;19.73;5.68;;;;;;;20.35;51.09;98481.00;5087124;28;20020;-46
2023/05/31 00:21:13;;;;;;;12.65;4.72;;;;;;;20.34;51.15;98482.06;5091795;28;20031;-46
2023/05/31 00:23:39;;;;;;;10.32;4.93;;;;;;;20.23;51.28;98479.69;5071561;28;20328;-46
2023/05/31 00:26:04;;;;;;;17.60;6.40;;;;;;;19.99;51.73;98487.44;5093653;28;20024;-46
2023/05/31 00:28:30;;;;;;;10.70;5.53;;;;;;;19.87;52.45;98488.47;5091313;28;20021;-46
2023/05/31 00:30:56;;;;;;;13.70;6.00;;;;;;;19.71;52.75;98484.22;5074448;28;20029;-46
2023/05/31 00:33:21;;;;;;;8.85;5.82;;;;;;;19.64;53.22;98491.63;5099083;28;20527;-45
2023/05/31 00:35:47;;;;;;;10.70;5.57;;;;;;;19.59;53.84;98484.44;5116261;28;20028;-45
2023/05/31 00:38:13;;;;;;;15.38;6.45;;;;;;;19.49;54.05;98479.09;5116140;28;20055;-45
2023/05/31 00:40:39;;;;;;;14.07;5.93;;;;;;;19.40;54.23;98483.31;5114858;28;20481;-45
2023/05/31 00:43:05;;;;;;;14.43;5.55;;;;;;;19.18;54.60;98483.56;5097863;28;20024;-45
2023/05/31 00:45:32;;;;;;;10.75;5.40;;;;;;;19.03;55.31;98484.28;5114784;28;20054;-45
2023/05/31 00:48:00;;;;;;;13.63;5.53;;;;;;;18.82;55.96;98491.38;5115929;28;20028;-45
2023/05/31 00:50:26;;;;;;;19.50;5.65;;;;;;;18.75;56.59;98491.56;5115997;28;20020;-45
2023/05/31 00:52:54;;;;;;;11.30;6.05;;;;;;;18.75;56.82;98486.25;5115891;28;20030;-45
2023/05/31 00:55:21;;;;;;;12.63;5.85;;;;;;;18.66;56.82;98490.47;5115851;28;20408;-45
2023/05/31 00:57:47;;;;;;;11.55;5.18;;;;;;;18.63;56.84;98491.75;5115933;28;20053;-45
2023/05/31 01:00:14;;;;;;;17.35;5.90;;;;;;;18.65;57.24;98492.34;5115800;28;20128;-45
2023/05/31 01:02:41;;;;;;;10.88;5.90;;;;;;;18.63;57.09;98481.13;5115640;28;20028;-45
2023/05/31 01:05:10;;;;;;;18.23;7.25;;;;;;;18.57;57.26;98490.13;5097638;28;20026;-45
2023/05/31 01:07:36;;;;;;;8.70;5.30;;;;;;;18.49;57.29;98488.78;5115740;28;20038;-45
2023/05/31 01:10:04;;;;;;;19.02;6.15;;;;;;;18.41;58.25;98483.13;5115840;28;20051;-45
2023/05/31 01:13:05;;;;;;;14.65;7.40;;;;;;;18.42;58.30;98490.06;5115489;28;20081;-45
2023/05/31 01:15:41;;;;;;;8.25;5.65;;;;;;;18.34;57.90;98494.00;5071681;28;20043;-45
2023/05/31 01:18:13;;;;;;;19.25;6.30;;;;;;;18.24;58.46;98496.59;5115354;28;20031;-45
2023/05/31 01:20:43;;;;;;;10.15;5.80;;;;;;;18.31;58.36;98502.47;5115384;28;20024;-45
2023/05/31 01:23:28;;;;;;;14.35;5.95;;;;;;;18.29;58.69;98502.75;5115428;28;20393;-45
2023/05/31 01:25:59;;;;;;;17.60;5.93;;;;;;;18.28;58.66;98500.34;5115330;28;20020;-45
2023/05/31 01:28:32;;;;;;;13.00;5.35;;;;;;;18.34;58.63;98504.63;5115348;28;20032;-45
2023/05/31 01:31:02;;;;;;;13.45;4.72;;;;;;;18.51;57.88;98499.97;5115539;28;20452;-45
2023/05/31 01:33:28;;;;;;;12.57;6.57;;;;;;;18.68;57.56;98499.00;5114866;28;20047;-45
2023/05/31 01:35:54;;;;;;;11.73;5.30;;;;;;;18.82;57.39;98502.03;5114725;28;20020;-45
2023/05/31 01:38:20;;;;;;;16.48;6.88;;;;;;;18.81;57.19;98503.84;5096743;28;20519;-46
2023/05/31 01:40:45;;;;;;;10.73;6.20;;;;;;;18.74;57.29;98506.72;5115021;28;20047;-45
2023/05/31 01:43:12;;;;;;;8.70;5.10;;;;;;;18.61;57.73;98504.50;5096713;28;20020;-45
2023/05/31 01:45:39;;;;;;;19.02;6.43;;;;;;;18.52;58.28;98506.06;5113593;28;20527;-45
2023/05/31 01:48:06;;;;;;;12.90;5.80;;;;;;;18.54;58.12;98502.09;5113586;28;20027;-45
2023/05/31 01:50:36;;;;;;;12.43;5.78;;;;;;;18.45;58.15;98501.00;5114878;28;20099;-45
2023/05/31 01:53:05;;;;;;;19.13;6.63;;;;;;;18.31;58.86;98505.94;5114754;28;20077;-45
2023/05/31 01:55:31;;;;;;;14.27;5.45;;;;;;;18.19;59.11;98510.63;5114830;28;20064;-45
2023/05/31 01:57:59;;;;;;;11.50;5.50;;;;;;;18.08;59.24;98512.41;5114712;28;20040;-45
2023/05/31 02:00:26;;;;;;;14.65;5.55;;;;;;;17.94;60.03;98514.66;5114654;28;20099;-45
2023/05/31 02:02:53;;;;;;;12.20;6.15;;;;;;;17.87;60.49;98516.75;5114538;28;20039;-45
2023/05/31 02:05:19;;;;;;;11.02;6.30;;;;;;;17.77;60.31;98513.97;5114442;28;20020;-45
2023/05/31 02:07:47;;;;;;;14.52;6.43;;;;;;;17.74;60.39;98514.47;5113229;28;20027;-45
2023/05/31 02:10:13;;;;;;;13.05;5.97;;;;;;;17.70;60.68;98511.50;5114467;28;20024;-45
2023/05/31 02:12:39;;;;;;;15.18;5.80;;;;;;;17.69;60.81;98509.91;5114369;28;20548;-45
2023/05/31 02:15:15;;;;;;;16.45;6.20;;;;;;;17.69;60.98;98509.91;5114313;28;20046;-46
2023/05/31 02:17:44;;;;;;;20.98;7.18;;;;;;;17.66;60.96;98510.41;5114381;28;20028;-45
2023/05/31 02:20:12;;;;;;;13.65;5.28;;;;;;;17.62;60.96;98506.66;5095942;28;20076;-45
2023/05/31 02:22:42;;;;;;;14.45;5.82;;;;;;;17.53;61.16;98508.16;5114128;28;20485;-45
2023/05/31 02:25:10;;;;;;;11.18;6.28;;;;;;;17.58;61.29;98516.16;5095824;28;20038;-45
2023/05/31 02:27:36;;;;;;;14.65;5.65;;;;;;;17.50;61.34;98517.41;5114141;28;20027;-45
2023/05/31 02:30:06;;;;;;;11.00;5.97;;;;;;;17.35;61.76;98525.22;5095845;28;20489;-45
2023/05/31 02:32:37;;;;;;;12.50;5.28;;;;;;;17.33;62.05;98522.00;5113878;28;20032;-45
2023/05/31 02:35:07;;;;;;;16.27;6.10;;;;;;;17.40;62.35;98521.81;5076253;28;20044;-45
2023/05/31 02:37:34;;;;;;;9.75;5.70;;;;;;;17.43;62.32;98527.41;5093579;28;20394;-45
2023/05/31 02:39:59;;;;;;;19.25;6.72;;;;;;;17.43;61.93;98529.28;5093390;28;20024;-45
2023/05/31 02:42:25;;;;;;;19.75;7.65;;;;;;;17.30;62.31;98531.25;5093448;28;20043;-45
2023/05/31 02:44:51;;;;;;;21.13;8.63;;;;;;;17.11;62.54;98522.81;5075177;28;20091;-45
2023/05/31 02:47:16;;;;;;;11.43;7.45;;;;;;;17.11;62.87;98524.66;5092511;28;20453;-45
2023/05/31 02:49:42;;;;;;;21.88;7.38;;;;;;;17.10;63.13;98525.69;5093343;28;20016;-45
2023/05/31 02:52:08;;;;;;;15.23;6.38;;;;;;;17.17;62.92;98532.44;5093104;28;20024;-45
2023/05/31 02:54:34;;;;;;;11.43;6.00;;;;;;;17.20;62.76;98528.47;5093478;28;20428;-45
2023/05/31 02:57:00;;;;;;;11.20;5.78;;;;;;;17.33;62.87;98528.09;5093102;28;20137;-45
2023/05/31 02:59:25;;;;;;;10.30;5.95;;;;;;;17.36;62.10;98524.97;5093132;28;20043;-45
2023/05/31 03:01:51;;;;;;;11.95;6.43;;;;;;;17.37;62.20;98523.91;5093054;28;20096;-45
2023/05/31 03:04:17;;;;;;;15.60;7.97;;;;;;;17.32;62.38;98526.50;5093037;28;20081;-45
2023/05/31 03:06:43;;;;;;;17.33;7.50;;;;;;;17.41;62.01;98531.38;5074923;28;20024;-45
2023/05/31 03:09:14;;;;;;;22.83;7.03;;;;;;;17.33;62.30;98528.09;5092881;28;20436;-45
2023/05/31 03:11:39;;;;;;;16.80;6.68;;;;;;;17.33;62.29;98528.09;5092952;28;20367;-45
2023/05/31 03:14:05;;;;;;;13.30;6.85;;;;;;;17.34;61.91;98528.91;5092816;28;20031;-45
2023/05/31 03:16:31;;;;;;;8.60;6.13;;;;;;;17.34;62.16;98520.94;5074537;28;20482;-45
2023/05/31 03:18:57;;;;;;;18.35;6.72;;;;;;;17.29;62.19;98521.69;5092810;28;20726;-45
2023/05/31 03:21:22;;;;;;;11.43;5.85;;;;;;;17.16;62.45;98522.06;5092965;28;20392;-45
2023/05/31 03:23:48;;;;;;;13.50;6.68;;;;;;;17.04;63.29;98524.81;5092656;28;20499;-45
2023/05/31 03:26:14;;;;;;;14.57;6.05;;;;;;;17.11;62.96;98522.00;5092719;28;20119;-45
2023/05/31 03:28:40;;;;;;;12.90;7.10;;;;;;;17.13;62.90;98522.56;5074489;28;20028;-45
2023/05/31 03:31:05;;;;;;;21.80;7.07;;;;;;;17.09;63.08;98516.94;5092534;28;20016;-45
2023/05/31 03:33:32;;;;;;;14.10;6.07;;;;;;;17.16;63.14;98516.75;5097098;28;20562;-45
2023/05/31 03:35:58;;;;;;;12.73;5.63;;;;;;;17.10;62.97;98520.41;5112838;28;20027;-45
2023/05/31 03:38:24;;;;;;;21.35;6.78;;;;;;;17.06;63.36;98524.59;5112824;28;20039;-45
2023/05/31 03:40:49;;;;;;;21.67;6.35;;;;;;;17.13;63.16;98517.25;5112720;28;20030;-45
2023/05/31 03:43:15;;;;;;;16.10;7.43;;;;;;;17.11;62.91;98522.00;5111428;28;20493;-45
2023/05/31 03:45:41;;;;;;;11.63;6.55;;;;;;;17.06;63.15;98519.28;5111310;28;20015;-45
2023/05/31 03:48:06;;;;;;;19.77;7.38;;;;;;;17.13;62.99;98517.25;5111313;28;20437;-45
2023/05/31 03:50:32;;;;;;;14.35;8.15;;;;;;;17.08;62.79;98525.97;5112523;28;20091;-45
2023/05/31 03:52:58;;;;;;;18.90;6.90;;;;;;;16.97;62.80;98524.22;5111175;28;20078;-45
2023/05/31 03:55:25;;;;;;;9.95;6.07;;;;;;;17.03;62.91;98527.75;5111218;28;20084;-45
2023/05/31 03:57:50;;;;;;;25.75;7.03;;;;;;;17.10;62.89;98531.81;5112664;28;20031;-45
2023/05/31 04:00:16;;;;;;;18.75;6.65;;;;;;;17.15;62.53;98542.47;5094185;28;20122;-45
2023/05/31 04:02:42;;;;;;;15.15;7.32;;;;;;;16.92;62.65;98543.53;5111104;28;20076;-45
2023/05/31 04:05:08;;;;;;;14.85;6.72;;;;;;;16.55;64.07;98544.03;5112302;28;20024;-45
2023/05/31 04:07:34;;;;;;;19.65;6.60;;;;;;;16.42;64.41;98556.78;5094013;28;20031;-45
2023/05/31 04:10:00;;;;;;;15.52;6.20;;;;;;;16.33;65.53;98543.16;5094034;28;20031;-45
2023/05/31 04:12:25;;;;;;;14.30;6.10;;;;;;;16.49;65.09;98545.00;5112221;28;20027;-45
2023/05/31 04:14:51;;;;;;;12.48;6.40;;;;;;;16.49;64.56;98555.59;5112205;28;20099;-45
2023/05/31 04:17:17;;;;;;;13.60;6.40;;;;;;;16.53;64.33;98559.34;5112276;28;20036;-45
2023/05/31 04:19:42;;;;;;;15.18;6.47;;;;;;;16.58;64.38;98556.00;5112190;28;20133;-45
2023/05/31 04:22:08;;;;;;;13.73;5.53;;;;;;;16.62;64.24;98558.94;5111207;28;20393;-45
2023/05/31 04:24:33;;;;;;;18.48;6.28;;;;;;;16.70;63.84;98558.53;5112262;28;20477;-45
2023/05/31 04:27:03;;;;;;;11.00;6.28;;;;;;;16.89;63.35;98561.75;5112131;28;20542;-45
2023/05/31 04:29:29;;;;;;;19.05;6.82;;;;;;;17.47;61.75;98563.00;5112167;28;20019;-45
2023/05/31 04:31:55;;;;;;;18.00;6.82;;;;;;;18.10;60.04;98552.78;5112009;28;20052;-45
2023/05/31 04:34:21;;;;;;;20.73;6.43;;;;;;;18.67;58.22;98569.16;5111996;28;20046;-45
2023/05/31 04:36:49;;;;;;;17.92;6.18;;;;;;;19.13;56.60;98564.13;5110725;28;20472;-45
2023/05/31 04:39:16;;;;;;;16.80;6.55;;;;;;;19.41;55.52;98564.78;5112131;28;20375;-45
2023/05/31 04:41:42;;;;;;;14.32;5.78;;;;;;;19.66;54.29;98556.88;5111979;28;20029;-45
2023/05/31 04:44:08;;;;;;;28.63;7.90;;;;;;;19.82;54.24;98559.56;5112047;28;20115;-45
2023/05/31 04:46:34;;;;;;;19.90;7.07;;;;;;;19.81;53.94;98558.78;5110697;28;20027;-45
2023/05/31 04:49:00;;;;;;;12.25;6.38;;;;;;;19.62;54.38;98566.44;5110632;28;20055;-45
2023/05/31 04:51:26;;;;;;;11.35;6.18;;;;;;;19.79;54.28;98563.56;5111984;28;20095;-45
2023/05/31 04:53:52;;;;;;;15.65;6.00;;;;;;;20.33;53.16;98560.41;5111847;28;20023;-45
2023/05/31 04:56:18;;;;;;;23.65;7.05;;;;;;;21.09;50.92;98563.25;5093596;28;20088;-45
2023/05/31 04:58:45;;;;;;;24.63;7.30;;;;;;;21.75;48.74;98559.50;5110569;28;20015;-45
2023/05/31 05:01:14;;;;;;;36.53;8.57;;;;;;;21.79;48.13;98554.41;5111724;28;20019;-45
2023/05/31 05:03:41;;;;;;;15.35;6.47;;;;;;;22.43;47.37;98556.06;5111727;28;20020;-45
2023/05/31 05:06:16;;;;;;;10.48;5.53;;;;;;;23.21;45.15;98556.13;5093484;28;20020;-45
2023/05/31 05:08:43;;;;;;;17.45;7.13;;;;;;;23.48;44.14;98553.63;5111774;28;20020;-45
2023/05/31 05:11:08;;;;;;;16.42;6.30;;;;;;;23.75;43.06;98557.53;5115260;28;20027;-45
2023/05/31 05:13:35;;;;;;;23.13;6.90;;;;;;;23.69;43.22;98562.16;5114209;28;20020;-45
2023/05/31 05:16:02;;;;;;;12.88;6.30;;;;;;;23.83;42.63;98559.59;5114270;28;20047;-46
2023/05/31 05:18:28;;;;;;;19.45;6.60;;;;;;;24.58;41.41;98560.56;5115707;28;20055;-46
2023/05/31 05:20:54;;;;;;;36.90;8.77;;;;;;;25.58;39.25;98565.34;5114162;28;20024;-46
2023/05/31 05:23:20;;;;;;;16.90;6.47;;;;;;;25.62;38.56;98565.56;5115428;28;20051;-46
2023/05/31 05:25:45;;;;;;;18.75;6.18;;;;;;;25.21;39.01;98561.00;5115409;28;20051;-46
2023/05/31 05:28:11;;;;;;;22.00;6.45;;;;;;;25.26;39.41;98566.31;5115331;28;20035;-45
2023/05/31 05:30:37;;;;;;;16.40;6.18;;;;;;;26.17;37.96;98561.91;5097088;28;20028;-45
2023/05/31 05:33:04;;;;;;;18.95;6.40;;;;;;;26.71;35.80;98562.72;5114970;28;20055;-45
2023/05/31 05:35:30;;;;;;;10.88;5.68;;;;;;;26.43;37.01;98570.13;5115455;28;20027;-46
2023/05/31 05:37:57;;;;;;;13.63;6.68;;;;;;;26.58;36.38;98564.41;5113783;28;20520;-46
2023/05/31 05:40:23;;;;;;;16.05;6.07;;;;;;;26.83;35.82;98567.50;5115101;28;20031;-46
2023/05/31 05:42:49;;;;;;;14.98;5.82;;;;;;;27.00;36.43;98564.88;5115025;28;20020;-45
2023/05/31 05:45:15;;;;;;;26.33;8.38;;;;;;;27.48;35.24;98566.75;5114938;28;20531;-45
2023/05/31 05:47:44;;;;;;;11.82;6.30;;;;;;;27.38;35.09;98561.66;5114942;28;20020;-45
2023/05/31 05:50:11;;;;;;;20.27;6.80;;;;;;;27.83;34.71;98564.09;5114886;28;20556;-45
2023/05/31 05:52:38;;;;;;;19.58;6.22;;;;;;;28.59;33.19;98570.06;5113460;28;20405;-45
2023/05/31 05:55:04;;;;;;;27.08;7.80;;;;;;;29.41;31.67;98567.19;5115014;28;20424;-45
2023/05/31 05:57:30;;;;;;;35.53;8.52;;;;;;;29.87;31.43;98568.16;5114743;28;20024;-45
2023/05/31 05:59:57;;;;;;;22.65;6.57;;;;;;;30.51;30.18;98556.09;5096383;28;20019;-45
2023/05/31 06:02:23;;;;;;;18.00;5.90;;;;;;;31.56;28.83;98558.25;5114645;28;20098;-45
2023/05/31 06:04:49;;;;;;;22.17;5.22;;;;;;;32.50;27.54;98567.03;5096266;28;20560;-45
2023/05/31 06:07:19;;;;;;;22.38;5.93;;;;;;;33.31;25.83;98563.19;5114592;28;20039;-45
2023/05/31 06:09:45;;;;;;;31.17;6.88;;;;;;;33.90;25.21;98564.81;5114556;28;20409;-45
2023/05/31 06:12:12;;;;;;;17.35;5.75;;;;;;;34.33;24.02;98562.13;5114378;28;20030;-45
2023/05/31 06:14:37;;;;;;;15.57;5.18;;;;;;;33.77;24.32;98568.84;5114412;28;20031;-45
2023/05/31 06:17:03;;;;;;;34.72;8.73;;;;;;;33.69;24.68;98572.56;5113036;28;20024;-45
2023/05/31 06:19:29;;;;;;;23.48;7.13;;;;;;;33.28;23.99;98577.47;5114330;28;20024;-45
2023/05/31 06:21:57;;;;;;;15.40;5.80;;;;;;;33.60;24.67;98586.34;5112982;28;20388;-45
2023/05/31 06:24:23;;;;;;;14.98;4.65;;;;;;;34.25;23.75;98579.50;5114141;28;20137;-45
2023/05/31 06:26:49;;;;;;;20.02;6.22;;;;;;;34.81;23.14;98584.41;5114219;28;20027;-45
2023/05/31 06:29:15;;;;;;;29.35;6.82;;;;;;;34.71;22.77;98587.75;5114146;28;20027;-45
2023/05/31 06:31:42;;;;;;;24.65;6.47;;;;;;;34.81;23.41;98584.41;5113955;28;20493;-45
2023/05/31 06:34:08;;;;;;;17.08;5.50;;;;;;;35.35;22.29;98577.84;5113760;28;20135;-45
2023/05/31 06:36:33;;;;;;;18.23;5.80;;;;;;;35.41;22.14;98573.63;5095694;28;20465;-45
2023/05/31 06:38:59;;;;;;;29.65;6.93;;;;;;;35.63;21.57;98568.47;5113969;28;20472;-45
2023/05/31 06:41:26;;;;;;;15.60;5.10;;;;;;;36.08;21.03;98577.63;5114129;28;20072;-45
2023/05/31 06:43:52;;;;;;;20.52;5.63;;;;;;;36.14;21.04;98575.31;5113820;28;20143;-45
2023/05/31 06:46:17;;;;;;;37.85;7.28;;;;;;;36.23;20.87;98572.31;5113820;28;20040;-45
2023/05/31 06:48:43;;;;;;;17.23;4.95;;;;;;;36.31;20.55;98574.75;5113745;28;20037;-45
2023/05/31 06:51:09;;;;;;;18.35;5.80;;;;;;;36.17;20.51;98569.13;5113589;28;20051;-45
2023/05/31 06:53:35;;;;;;;19.20;4.85;;;;;;;36.37;20.39;98575.19;5112541;28;20097;-45
2023/05/31 06:56:01;;;;;;;16.05;5.47;;;;;;;36.76;20.23;98581.06;5113778;28;20540;-45
2023/05/31 06:58:31;;;;;;;26.70;5.80;;;;;;;36.82;20.66;98581.47;5112271;28;20019;-45
2023/05/31 07:00:57;;;;;;;42.25;7.63;;;;;;;36.90;19.92;98576.84;5113525;28;20023;-46
2023/05/31 07:03:23;;;;;;;25.17;6.18;;;;;;;36.66;20.15;98570.00;5113474;28;20027;-45
2023/05/31 07:05:48;;;;;;;20.77;5.40;;;;;;;36.90;20.42;98574.09;5095298;28;20099;-45
2023/05/31 07:08:17;;;;;;;32.88;6.78;;;;;;;37.10;20.01;98571.91;5113419;28;20051;-45
2023/05/31 07:10:45;;;;;;;30.80;6.32;;;;;;;37.72;19.57;98569.16;5078650;28;20023;-45
2023/05/31 07:13:11;;;;;;;11.32;4.35;;;;;;;37.91;18.98;98572.72;5113219;28;20065;-45
2023/05/31 07:15:37;;;;;;;30.98;6.30;;;;;;;37.91;18.39;98567.25;5113399;28;20091;-45
2023/05/31 07:18:03;;;;;;;99.05;12.32;;;;;;;38.08;18.55;98571.25;5111819;28;20423;-45
2023/05/31 07:20:28;;;;;;;37.38;8.18;;;;;;;37.40;18.98;98562.72;5113079;28;20083;-45
2023/05/31 07:22:54;;;;;;;27.77;6.07;;;;;;;36.61;19.07;98567.59;5111769;28;20114;-45
2023/05/31 07:25:20;;;;;;;33.88;6.60;;;;;;;35.93;20.02;98571.19;5113021;28;20027;-45
2023/05/31 07:27:46;;;;;;;42.33;6.68;;;;;;;35.40;20.41;98571.28;5111646;28;20431;-45
2023/05/31 07:30:11;;;;;;;32.70;7.30;;;;;;;35.18;21.23;98570.97;5112943;28;20028;-45
2023/05/31 07:32:37;;;;;;;18.33;5.00;;;;;;;34.58;21.12;98570.75;5112466;28;20020;-45
2023/05/31 07:35:03;;;;;;;57.67;10.20;;;;;;;34.08;22.27;98567.88;5112473;28;20048;-45
2023/05/31 07:37:29;;;;;;;34.05;7.50;;;;;;;33.80;22.48;98577.06;5112801;28;20033;-45
2023/05/31 07:39:55;;;;;;;30.02;7.80;;;;;;;33.87;22.82;98571.00;5112765;28;20452;-45
2023/05/31 07:42:21;;;;;;;24.92;5.30;;;;;;;33.98;22.25;98566.53;5094707;28;20122;-45
2023/05/31 07:44:48;;;;;;;21.27;4.72;;;;;;;34.20;21.94;98567.75;5112737;28;20520;-45
2023/05/31 07:47:15;;;;;;;24.67;4.72;;;;;;;34.54;21.74;98565.25;5112571;28;20028;-45
2023/05/31 07:49:41;;;;;;;25.40;5.88;;;;;;;34.97;21.09;98555.06;5094410;28;20069;-45
2023/05/31 07:52:07;;;;;;;21.52;6.18;;;;;;;35.00;21.40;98553.53;5112458;28;20028;-45
2023/05/31 07:54:33;;;;;;;20.83;5.15;;;;;;;35.10;21.23;98563.81;5094292;28;20404;-45
2023/05/31 07:56:58;;;;;;;20.75;4.32;;;;;;;35.53;21.04;98558.97;5112485;28;20098;-45
2023/05/31 07:59:24;;;;;;;32.67;6.22;;;;;;;36.57;20.12;98559.38;5112453;28;20020;-45
2023/05/31 08:01:50;;;;;;;26.85;5.72;;;;;;;37.50;19.37;98562.75;5094394;28;20036;-45
2023/05/31 08:04:16;;;;;;;32.40;5.90;;;;;;;38.28;18.81;98549.75;5111041;28;20031;-45
2023/05/31 08:06:42;;;;;;;31.40;6.43;;;;;;;38.47;18.55;98551.31;5112342;28;20065;-45
2023/05/31 08:09:08;;;;;;;58.85;10.70;;;;;;;38.73;18.81;98550.94;5094051;28;20034;-45
2023/05/31 08:11:37;;;;;;;28.75;6.97;;;;;;;39.09;18.06;98556.44;5112277;28;20028;-48
2023/05/31 08:14:04;;;;;;;36.55;6.30;;;;;;;39.08;18.03;98554.88;5078048;28;20389;-48
2023/05/31 08:16:32;;;;;;;23.65;5.75;;;;;;;39.54;17.40;98550.44;5093898;28;20027;-48
2023/05/31 08:18:57;;;;;;;25.25;6.35;;;;;;;40.02;16.94;98544.34;5112245;28;20024;-48
2023/05/31 08:21:23;;;;;;;35.30;6.22;;;;;;;40.28;16.60;98550.44;5112239;28;20024;-48
2023/05/31 08:23:49;;;;;;;40.80;6.78;;;;;;;40.53;16.43;98548.31;5112078;28;20409;-48
2023/05/31 08:26:15;;;;;;;31.75;6.82;;;;;;;40.42;16.69;98549.59;5112031;28;20497;-48
2023/05/31 08:28:41;;;;;;;37.05;6.72;;;;;;;40.57;16.26;98545.56;5112031;28;20035;-48
2023/05/31 08:31:07;;;;;;;45.97;9.05;;;;;;;40.68;16.45;98537.97;5112044;28;20031;-48
2023/05/31 08:33:36;;;;;;;18.35;5.47;;;;;;;40.81;16.61;98537.50;5090069;28;20082;-48
2023/05/31 08:36:04;;;;;;;35.03;6.38;;;;;;;40.88;16.04;98538.19;5091918;28;20063;-48
2023/05/31 08:38:30;;;;;;;26.30;5.40;;;;;;;41.45;16.15;98536.03;5091616;28;20128;-48
2023/05/31 08:41:42;;;;;;;24.83;6.28;;;;;;;41.87;15.42;98528.44;5086657;28;20012;-48
2023/05/31 08:44:08;;;;;;;43.90;7.80;;;;;;;41.92;15.76;98530.72;5088855;28;20460;-48
2023/05/31 08:46:34;;;;;;;32.08;5.75;;;;;;;41.76;15.39;98525.84;5095604;28;20016;-48
2023/05/31 08:49:15;;;;;;;31.13;6.13;;;;;;;41.50;15.81;98528.09;5108250;28;20024;-48
2023/05/31 08:51:45;;;;;;;18.67;5.15;;;;;;;41.70;15.68;98530.25;5095856;28;20080;-49
2023/05/31 08:54:11;;;;;;;46.08;7.32;;;;;;;41.97;15.75;98530.25;5095491;28;20069;-48
2023/05/31 08:56:38;;;;;;;25.13;5.65;;;;;;;42.18;15.38;98531.16;5087876;28;20012;-48
2023/05/31 08:59:10;;;;;;;13.88;4.70;;;;;;;42.01;15.57;98522.69;5095760;28;20485;-48
2023/05/31 09:01:41;;;;;;;15.93;4.72;;;;;;;41.80;15.37;98523.81;5095424;28;20070;-48
2023/05/31 09:04:07;;;;;;;26.38;4.95;;;;;;;41.69;15.70;98518.41;5095642;28;20085;-48
2023/05/31 09:06:34;;;;;;;42.80;6.72;;;;;;;41.77;15.70;98519.09;5087446;28;20493;-48
2023/05/31 09:09:00;;;;;;;13.25;4.63;;;;;;;41.42;15.78;98521.13;5094145;28;20027;-48
2023/05/31 09:11:27;;;;;;;19.15;5.05;;;;;;;41.15;16.03;98518.25;5086094;28;20028;-49
2023/05/31 09:13:53;;;;;;;13.15;5.25;;;;;;;41.06;16.07;98527.00;5093828;28;20122;-48
2023/05/31 09:16:25;;;;;;;17.08;5.03;;;;;;;40.92;16.44;98519.69;5110771;28;20535;-49
2023/05/31 09:19:03;;;;;;;11.45;4.60;;;;;;;41.47;16.01;98523.41;5095069;28;20401;-49
2023/05/31 09:21:29;;;;;;;18.23;5.10;;;;;;;42.11;15.67;98526.53;5095017;28;20024;-48
2023/05/31 09:23:57;;;;;;;25.05;5.22;;;;;;;42.60;15.22;98507.66;5095091;28;20080;-48
2023/05/31 09:26:23;;;;;;;23.73;5.63;;;;;;;42.63;15.35;98511.53;5086712;28;20016;-49
2023/05/31 09:28:55;;;;;;;17.33;5.40;;;;;;;42.76;14.99;98514.44;5089066;28;20028;-49
2023/05/31 09:31:21;;;;;;;16.42;5.45;;;;;;;42.70;15.06;98506.66;5110626;28;20020;-49
2023/05/31 09:33:50;;;;;;;33.50;7.05;;;;;;;41.81;15.61;98514.31;5094278;28;20039;-49
2023/05/31 09:36:27;;;;;;;27.80;6.63;;;;;;;40.84;16.77;98511.91;5076112;28;20082;-49
2023/05/31 09:39:12;;;;;;;15.02;5.45;;;;;;;41.11;16.46;98517.50;5095088;28;20088;-49
2023/05/31 09:41:38;;;;;;;19.00;5.78;;;;;;;41.32;16.23;98511.78;5088568;28;20027;-49
2023/05/31 09:44:08;;;;;;;30.70;17.70;;;;;;;41.55;16.10;98501.28;5094660;28;20020;-49
2023/05/31 09:46:34;;;;;;;37.80;12.25;;;;;;;41.89;16.38;98509.50;5094581;28;20028;-49
2023/05/31 09:49:06;;;;;;;41.72;12.60;;;;;;;41.95;16.03;98509.81;5094586;28;20405;-49
2023/05/31 09:51:33;;;;;;;32.92;11.15;;;;;;;41.95;15.74;98507.06;5094577;28;20436;-51
2023/05/31 09:54:09;;;;;;;59.03;9.93;;;;;;;41.90;15.98;98509.09;5094394;28;20093;-51
2023/05/31 09:56:40;;;;;;;16.77;5.07;;;;;;;41.54;15.82;98492.25;5072593;28;20052;-51
2023/05/31 09:59:07;;;;;;;31.50;8.77;;;;;;;41.02;16.33;98495.22;5090951;28;20025;-50
2023/05/31 10:01:33;;;;;;;22.88;7.63;;;;;;;41.28;16.21;98496.50;5072703;28;20025;-51
2023/05/31 10:04:01;;;;;;;52.95;10.13;;;;;;;41.26;16.20;98496.16;5091096;28;20077;-50
2023/05/31 10:06:26;;;;;;;49.00;9.75;;;;;;;41.26;16.29;98491.41;5094432;28;20397;-50
2023/05/31 10:08:52;;;;;;;29.35;6.97;;;;;;;41.62;16.15;98501.22;5072669;28;20024;-51
2023/05/31 10:11:25;;;;;;;58.25;11.85;;;;;;;41.49;16.22;98492.69;5092307;28;20032;-51
2023/05/31 10:13:56;;;;;;;22.15;7.05;;;;;;;41.99;15.83;98485.72;5094051;28;20024;-51
2023/05/31 10:16:25;;;;;;;28.92;7.78;;;;;;;42.41;15.63;98476.00;5072547;28;20409;-50
2023/05/31 10:18:54;;;;;;;39.67;7.50;;;;;;;42.05;15.69;98484.09;5089654;28;20024;-51
2023/05/31 10:21:26;;;;;;;83.82;14.88;;;;;;;41.84;15.70;98487.94;5075539;28;20028;-51
2023/05/31 10:24:08;;;;;;;42.60;8.18;;;;;;;42.21;15.46;98483.44;5072374;28;20111;-50
2023/05/31 10:26:52;;;;;;;25.97;6.07;;;;;;;42.47;15.07;98468.06;5087485;28;20040;-51
2023/05/31 10:29:21;;;;;;;28.85;7.55;;;;;;;42.81;15.13;98465.06;5093793;28;20270;-50
2023/05/31 10:31:50;;;;;;;50.47;8.68;;;;;;;42.94;15.08;98465.22;5093584;28;20028;-50
2023/05/31 10:34:24;;;;;;;22.20;6.05;;;;;;;42.60;15.11;98469.00;5104408;28;20075;-50
2023/05/31 10:36:51;;;;;;;19.30;5.00;;;;;;;41.78;15.30;98467.53;5113940;28;20023;-51
2023/05/31 10:39:47;;;;;;;17.63;5.55;;;;;;;41.61;15.44;98467.34;5113857;28;20030;-50
2023/05/31 10:42:22;;;;;;;22.73;4.60;;;;;;;41.76;15.61;98473.47;5114194;28;20032;-51
2023/05/31 10:45:09;;;;;;;20.50;5.00;;;;;;;41.55;15.81;98465.47;5113884;28;20508;-51
2023/05/31 10:48:02;;;;;;;16.20;4.45;;;;;;;41.70;15.78;98470.38;5113825;28;20124;-51
2023/05/31 10:50:28;;;;;;;20.27;4.63;;;;;;;41.87;15.13;98463.03;5098431;28;20502;-51
2023/05/31 10:53:11;;;;;;;24.48;5.50;;;;;;;41.61;15.35;98452.81;5112370;28;20055;-51
2023/05/31 10:55:43;;;;;;;9.73;4.43;;;;;;;41.68;15.26;98444.44;5095324;28;20080;-51
2023/05/31 10:58:36;;;;;;;19.92;5.53;;;;;;;41.65;14.86;98453.53;5113530;28;20020;-51
2023/05/31 11:01:05;;;;;;;32.50;7.40;;;;;;;42.05;15.20;98451.75;5095730;28;20049;-51
2023/05/31 11:03:34;;;;;;;14.10;4.47;;;;;;;42.51;14.54;98446.69;5078286;28;20111;-51
2023/05/31 11:06:08;;;;;;;25.10;4.97;;;;;;;42.73;14.54;98444.31;5113432;28;20102;-51
2023/05/31 11:08:35;;;;;;;20.48;5.68;;;;;;;42.75;14.41;98447.44;5112684;28;20040;-51
2023/05/31 11:11:44;;;;;;;35.10;8.38;;;;;;;42.75;14.16;98441.91;5095532;28;20027;-51
2023/05/31 11:14:30;;;;;;;17.55;4.88;;;;;;;42.66;14.26;98434.19;5113231;28;20054;-51
2023/05/31 11:17:03;;;;;;;11.30;4.13;;;;;;;42.83;14.12;98439.78;5112904;28;20046;-51
2023/05/31 11:19:31;;;;;;;94.70;15.90;;;;;;;42.49;14.86;98427.78;5113380;28;20027;-51
2023/05/31 11:22:06;;;;;;;21.65;5.70;;;;;;;42.64;14.29;98433.84;5094819;28;20096;-51
2023/05/31 11:24:36;;;;;;;10.73;4.30;;;;;;;43.08;14.00;98428.25;5113110;28;20367;-51
2023/05/31 11:27:02;;;;;;;14.27;5.35;;;;;;;42.93;14.11;98430.53;5111673;28;20553;-51
2023/05/31 11:29:52;;;;;;;13.35;4.82;;;;;;;41.80;15.21;98430.09;5113028;28;20397;-51